Time;durP1;ratioP1;P1;durP2;ratioP2;P2;SDS_P1;SDS_P2;PMS_P1;PMS_P2;Temp;Humidity;BMP_temperature;BMP_pressure;BME280_temperature;BME280_humidity;BME280_pressure;Samples;Min_cycle;Max_cycle;Signal;HPM_P1;HPM_P2
2024/01/10 00:03:10;;;;;;;14.73;10.43;;;;;;;;;;10053558;28;20050;-77
2024/01/10 00:08:02;;;;;;;16.80;11.82;;;;;;;;;;10050913;28;20053;-77
2024/01/10 00:12:54;;;;;;;15.13;12.82;;;;;;;;;;10054710;28;20041;-77
2024/01/10 00:17:46;;;;;;;18.85;11.30;;;;;;;;;;10053396;28;20103;-77
2024/01/10 00:22:38;;;;;;;20.80;11.70;;;;;;;;;;10051617;28;20049;-76
2024/01/10 00:27:30;;;;;;;13.07;9.65;;;;;;;;;;10052901;28;20042;-77
2024/01/10 00:32:22;;;;;;;16.25;11.82;;;;;;;;;;10053910;28;20149;-76
2024/01/10 00:37:14;;;;;;;19.20;10.48;;;;;;;;;;10048853;28;20038;-77
2024/01/10 00:42:06;;;;;;;19.02;11.95;;;;;;;;;;10058139;28;20103;-76
2024/01/10 00:46:58;;;;;;;11.25;9.88;;;;;;;;;;10058459;28;20433;-77
2024/01/10 00:51:50;;;;;;;16.38;10.85;;;;;;;;;;10059413;28;20421;-76
2024/01/10 00:56:42;;;;;;;16.17;10.88;;;;;;;;;;10059368;28;20321;-77
2024/01/10 01:01:34;;;;;;;14.93;10.98;;;;;;;;;;10059586;28;20053;-76
2024/01/10 01:06:26;;;;;;;16.33;10.85;;;;;;;;;;10057191;28;20145;-77
2024/01/10 01:11:17;;;;;;;13.90;8.60;;;;;;;;;;10057551;28;20412;-76
2024/01/10 01:16:10;;;;;;;12.63;10.60;;;;;;;;;;10057412;28;20041;-76
2024/01/10 01:21:03;;;;;;;13.43;9.77;;;;;;;;;;10061779;28;20457;-76
2024/01/10 01:25:55;;;;;;;16.67;10.57;;;;;;;;;;10056277;28;20049;-76
2024/01/10 01:30:47;;;;;;;13.05;9.20;;;;;;;;;;10057373;28;20090;-76
2024/01/10 01:35:39;;;;;;;16.38;9.63;;;;;;;;;;10059669;28;20053;-76
2024/01/10 01:40:31;;;;;;;18.58;11.57;;;;;;;;;;10058114;28;20045;-76
2024/01/10 01:45:23;;;;;;;14.05;9.70;;;;;;;;;;10054216;28;20045;-76
2024/01/10 01:50:16;;;;;;;12.20;9.25;;;;;;;;;;10060878;28;20154;-76
2024/01/10 01:55:08;;;;;;;17.75;12.18;;;;;;;;;;10055996;28;20051;-76
2024/01/10 02:00:01;;;;;;;15.20;10.32;;;;;;;;;;10060833;28;20552;-77
2024/01/10 02:04:55;;;;;;;12.50;10.45;;;;;;;;;;10054946;28;20365;-77
2024/01/10 02:09:47;;;;;;;18.10;10.15;;;;;;;;;;10058501;28;20057;-77
2024/01/10 02:14:39;;;;;;;12.88;10.80;;;;;;;;;;10054718;28;20040;-77
2024/01/10 02:19:32;;;;;;;11.38;10.20;;;;;;;;;;10053029;28;20652;-78
2024/01/10 02:24:24;;;;;;;11.52;9.27;;;;;;;;;;10058585;28;20053;-78
2024/01/10 02:29:16;;;;;;;18.55;11.13;;;;;;;;;;10055798;28;20134;-78
2024/01/10 02:34:08;;;;;;;14.38;9.90;;;;;;;;;;10054172;28;20053;-78
2024/01/10 02:39:00;;;;;;;12.35;8.98;;;;;;;;;;10058400;28;20139;-78
2024/01/10 02:43:52;;;;;;;15.35;9.80;;;;;;;;;;10054806;28;20465;-78
2024/01/10 02:48:44;;;;;;;12.77;8.88;;;;;;;;;;10054075;28;20050;-78
2024/01/10 02:53:36;;;;;;;16.23;11.88;;;;;;;;;;10056378;28;20041;-77
2024/01/10 02:58:29;;;;;;;13.27;9.50;;;;;;;;;;10057006;28;20103;-77
2024/01/10 03:03:21;;;;;;;12.82;9.95;;;;;;;;;;10050597;28;20419;-77
2024/01/10 03:08:13;;;;;;;17.23;10.15;;;;;;;;;;10054410;28;20128;-77
2024/01/10 03:13:05;;;;;;;12.27;9.50;;;;;;;;;;10054345;28;20048;-77
2024/01/10 03:17:57;;;;;;;12.63;9.65;;;;;;;;;;10053001;28;20042;-78
2024/01/10 03:22:49;;;;;;;12.25;10.38;;;;;;;;;;10059358;28;20445;-78
2024/01/10 03:27:41;;;;;;;15.85;11.38;;;;;;;;;;10054212;28;20096;-78
2024/01/10 03:32:32;;;;;;;12.55;9.40;;;;;;;;;;10052760;28;20049;-77
2024/01/10 03:37:24;;;;;;;14.25;9.82;;;;;;;;;;10054393;28;20077;-78
2024/01/10 03:42:16;;;;;;;13.98;10.68;;;;;;;;;;10051708;28;20042;-78
2024/01/10 03:47:09;;;;;;;20.08;11.27;;;;;;;;;;10055030;28;20076;-78
2024/01/10 03:52:01;;;;;;;15.23;11.63;;;;;;;;;;10054329;28;20045;-78
2024/01/10 03:56:53;;;;;;;14.93;11.52;;;;;;;;;;10052799;28;20048;-78
2024/01/10 04:01:45;;;;;;;13.40;9.75;;;;;;;;;;10052593;28;20056;-78
2024/01/10 04:06:37;;;;;;;13.13;10.30;;;;;;;;;;10052081;28;20045;-77
2024/01/10 04:11:28;;;;;;;13.18;9.73;;;;;;;;;;10053195;28;20137;-77
2024/01/10 04:16:20;;;;;;;17.52;10.38;;;;;;;;;;10058430;28;20111;-77
2024/01/10 04:21:12;;;;;;;13.73;9.07;;;;;;;;;;10060787;28;20096;-77
2024/01/10 04:26:04;;;;;;;12.45;11.13;;;;;;;;;;10060865;28;20049;-77
2024/01/10 04:30:56;;;;;;;12.25;9.63;;;;;;;;;;10062991;28;20049;-76
2024/01/10 04:35:48;;;;;;;17.10;9.52;;;;;;;;;;10056874;28;20077;-77
2024/01/10 04:40:40;;;;;;;13.10;10.15;;;;;;;;;;10061530;28;20071;-77
2024/01/10 04:45:32;;;;;;;13.95;11.40;;;;;;;;;;10064724;28;20053;-77
2024/01/10 04:50:24;;;;;;;12.45;9.57;;;;;;;;;;10055122;28;20439;-77
2024/01/10 04:55:16;;;;;;;14.48;10.95;;;;;;;;;;10059275;28;20038;-77
2024/01/10 05:00:08;;;;;;;16.00;10.68;;;;;;;;;;10059222;28;20045;-77
2024/01/10 05:05:00;;;;;;;16.10;10.13;;;;;;;;;;10063431;28;20076;-77
2024/01/10 05:09:53;;;;;;;12.95;10.90;;;;;;;;;;10058815;28;20095;-77
2024/01/10 05:14:45;;;;;;;14.18;10.65;;;;;;;;;;10058121;28;20049;-77
2024/01/10 05:19:37;;;;;;;12.93;10.52;;;;;;;;;;10065893;28;20045;-77
2024/01/10 05:24:28;;;;;;;16.85;12.38;;;;;;;;;;10069058;28;20053;-77
2024/01/10 05:29:22;;;;;;;13.75;10.88;;;;;;;;;;10069851;28;20046;-77
2024/01/10 05:34:14;;;;;;;15.30;10.63;;;;;;;;;;10068960;28;20072;-77
2024/01/10 05:39:06;;;;;;;13.35;11.38;;;;;;;;;;10068239;28;20116;-77
2024/01/10 05:43:57;;;;;;;11.45;9.20;;;;;;;;;;10032977;28;20461;-77
2024/01/10 05:48:49;;;;;;;11.52;9.75;;;;;;;;;;10031959;28;20384;-77
2024/01/10 05:53:41;;;;;;;11.82;9.48;;;;;;;;;;10031931;28;20456;-77
2024/01/10 05:58:33;;;;;;;40.15;32.40;;;;;;;;;;10030164;28;20072;-77
2024/01/10 06:03:25;;;;;;;42.60;33.53;;;;;;;;;;10031014;28;20069;-77
2024/01/10 06:08:17;;;;;;;30.65;25.17;;;;;;;;;;10030213;28;20050;-77
2024/01/10 06:13:09;;;;;;;34.90;31.25;;;;;;;;;;10038689;28;20038;-77
2024/01/10 06:18:01;;;;;;;27.98;20.92;;;;;;;;;;10030483;28;20046;-78
2024/01/10 06:22:53;;;;;;;29.83;26.45;;;;;;;;;;10030331;28;20060;-76
2024/01/10 06:27:45;;;;;;;54.75;43.15;;;;;;;;;;10029548;28;20058;-76
2024/01/10 06:32:37;;;;;;;27.30;20.08;;;;;;;;;;10029909;28;20073;-76
2024/01/10 06:37:29;;;;;;;28.45;24.08;;;;;;;;;;10052842;28;20373;-76
2024/01/10 06:42:24;;;;;;;22.73;18.75;;;;;;;;;;10063938;28;20049;-77
2024/01/10 06:47:16;;;;;;;26.27;19.38;;;;;;;;;;10049052;28;20045;-76
2024/01/10 06:52:08;;;;;;;19.85;16.08;;;;;;;;;;10057952;28;20041;-76
2024/01/10 06:57:00;;;;;;;31.10;22.33;;;;;;;;;;10060310;28;20452;-76
2024/01/10 07:01:53;;;;;;;21.75;14.57;;;;;;;;;;10065300;28;20042;-76
2024/01/10 07:06:45;;;;;;;40.65;31.00;;;;;;;;;;10064566;28;20076;-76
2024/01/10 07:11:37;;;;;;;19.58;16.35;;;;;;;;;;10060716;28;20369;-76
2024/01/10 07:16:29;;;;;;;30.30;22.50;;;;;;;;;;10050066;28;20119;-76
2024/01/10 07:21:22;;;;;;;21.08;17.67;;;;;;;;;;10059410;28;20045;-75
2024/01/10 07:26:16;;;;;;;24.00;16.88;;;;;;;;;;10046876;28;20465;-75
2024/01/10 07:31:08;;;;;;;15.65;11.68;;;;;;;;;;10063910;28;20048;-86
2024/01/10 07:36:01;;;;;;;22.90;14.00;;;;;;;;;;10046638;28;20133;-87
2024/01/10 07:40:53;;;;;;;15.13;11.55;;;;;;;;;;10046068;28;20069;-87
2024/01/10 07:45:45;;;;;;;90.35;58.28;;;;;;;;;;10064541;28;20069;-82
2024/01/10 07:50:37;;;;;;;23.15;17.27;;;;;;;;;;10062095;28;21090;-85
2024/01/10 07:55:29;;;;;;;18.10;14.48;;;;;;;;;;10025859;28;20049;-82
2024/01/10 08:00:22;;;;;;;14.73;12.27;;;;;;;;;;10023210;28;20041;-82
2024/01/10 08:05:14;;;;;;;14.75;10.57;;;;;;;;;;10022499;28;20053;-82
2024/01/10 08:10:10;;;;;;;16.08;11.35;;;;;;;;;;10023726;28;20857;-79
2024/01/10 08:15:02;;;;;;;17.23;9.43;;;;;;;;;;10026999;28;20049;-80
2024/01/10 08:19:54;;;;;;;19.65;11.52;;;;;;;;;;10024105;28;20050;-79
2024/01/10 08:24:47;;;;;;;19.48;14.18;;;;;;;;;;10023831;28;20060;-80
2024/01/10 08:29:39;;;;;;;17.77;12.52;;;;;;;;;;10026079;28;20046;-80
2024/01/10 08:34:31;;;;;;;13.30;11.02;;;;;;;;;;10032327;28;20472;-80
2024/01/10 08:39:25;;;;;;;12.52;10.57;;;;;;;;;;10023669;28;20080;-80
2024/01/10 08:44:17;;;;;;;32.45;27.23;;;;;;;;;;10023533;28;20100;-80
2024/01/10 08:49:09;;;;;;;12.77;9.70;;;;;;;;;;10023545;28;20061;-79
2024/01/10 08:54:01;;;;;;;14.82;11.00;;;;;;;;;;10024645;28;20046;-80
2024/01/10 08:58:54;;;;;;;13.18;9.77;;;;;;;;;;10023497;28;20144;-80
2024/01/10 09:03:46;;;;;;;12.90;11.27;;;;;;;;;;10030377;28;20057;-80
2024/01/10 09:08:39;;;;;;;14.40;11.35;;;;;;;;;;10029075;28;20042;-80
2024/01/10 09:13:31;;;;;;;12.35;10.27;;;;;;;;;;10030760;28;20361;-80
2024/01/10 09:18:23;;;;;;;17.88;12.35;;;;;;;;;;10030504;28;20373;-80
2024/01/10 09:23:15;;;;;;;19.45;12.38;;;;;;;;;;10056313;28;20060;-80
2024/01/10 09:28:07;;;;;;;20.08;11.85;;;;;;;;;;10062873;28;20037;-80
2024/01/10 09:33:00;;;;;;;15.13;11.40;;;;;;;;;;10062840;28;20460;-80
2024/01/10 09:37:53;;;;;;;14.85;11.57;;;;;;;;;;10063821;28;20044;-80
2024/01/10 09:42:49;;;;;;;16.65;11.75;;;;;;;;;;10062911;28;20049;-82
2024/01/10 09:47:43;;;;;;;16.67;12.75;;;;;;;;;;10062912;28;20038;-79
2024/01/10 09:52:41;;;;;;;18.00;12.35;;;;;;;;;;10061959;28;20034;-78
2024/01/10 09:57:36;;;;;;;19.20;15.73;;;;;;;;;;10049364;28;20049;-74
2024/01/10 10:02:28;;;;;;;15.02;12.35;;;;;;;;;;10026424;28;20061;-76
2024/01/10 10:07:19;;;;;;;26.55;17.77;;;;;;;;;;10027667;28;20389;-76
2024/01/10 10:12:11;;;;;;;14.93;12.10;;;;;;;;;;10026968;28;20544;-78
2024/01/10 10:17:17;;;;;;;16.13;13.20;;;;;;;;;;10029825;28;20084;-78
2024/01/10 10:22:09;;;;;;;14.57;11.23;;;;;;;;;;10026729;28;22392;-78
2024/01/10 10:27:01;;;;;;;21.10;12.77;;;;;;;;;;10028713;28;20354;-76
2024/01/10 10:31:55;;;;;;;17.70;14.32;;;;;;;;;;10029737;28;20049;-78
2024/01/10 10:36:47;;;;;;;17.67;13.98;;;;;;;;;;10027452;28;20042;-78
2024/01/10 10:41:40;;;;;;;19.52;10.95;;;;;;;;;;10026858;28;20499;-77
2024/01/10 10:46:33;;;;;;;16.75;12.15;;;;;;;;;;10030421;28;20420;-78
2024/01/10 10:51:33;;;;;;;24.20;12.80;;;;;;;;;;10041408;28;20143;-78
2024/01/10 10:56:30;;;;;;;16.65;12.40;;;;;;;;;;10026819;28;20376;-78
2024/01/10 11:01:23;;;;;;;13.57;11.80;;;;;;;;;;10025847;28;20500;-78
2024/01/10 11:06:17;;;;;;;25.23;15.70;;;;;;;;;;10026043;28;20108;-78
2024/01/10 11:11:52;;;;;;;16.40;12.13;;;;;;;;;;10031508;28;20473;-78
2024/01/10 11:16:58;;;;;;;18.17;11.07;;;;;;;;;;10017973;28;20042;-78
2024/01/10 11:22:04;;;;;;;13.73;11.55;;;;;;;;;;10026899;28;20368;-78
2024/01/10 11:27:13;;;;;;;13.40;10.15;;;;;;;;;;10022076;28;20080;-78
2024/01/10 11:32:15;;;;;;;15.43;9.65;;;;;;;;;;10026557;28;20361;-77
2024/01/10 11:37:12;;;;;;;13.98;12.38;;;;;;;;;;10025910;28;20053;-78
2024/01/10 11:42:04;;;;;;;14.93;10.18;;;;;;;;;;10026174;28;20042;-78
2024/01/10 11:46:58;;;;;;;14.43;11.00;;;;;;;;;;10026463;28;20371;-78
2024/01/10 11:51:57;;;;;;;22.00;17.30;;;;;;;;;;10024552;28;20129;-78
2024/01/10 11:56:49;;;;;;;;;;;;;;;;;;10031665;28;20128;-78
2024/01/10 12:01:41;;;;;;;14.35;11.93;;;;;;;;;;10024800;28;19922;-78
2024/01/10 12:06:37;;;;;;;14.02;11.65;;;;;;;;;;10025413;28;20072;-82
2024/01/10 12:11:29;;;;;;;19.83;13.32;;;;;;;;;;10025795;28;20096;-79
2024/01/10 12:16:23;;;;;;;12.93;11.48;;;;;;;;;;10026490;28;20480;-79
2024/01/10 12:21:15;;;;;;;17.02;11.35;;;;;;;;;;10023288;28;20049;-79
2024/01/10 12:26:09;;;;;;;17.58;11.13;;;;;;;;;;10025928;28;20084;-79
2024/01/10 12:31:03;;;;;;;17.83;12.32;;;;;;;;;;10023250;28;20061;-80
2024/01/10 12:36:11;;;;;;;17.92;11.52;;;;;;;;;;10026306;28;20096;-80
2024/01/10 12:41:04;;;;;;;13.70;9.68;;;;;;;;;;10032732;28;20112;-80
2024/01/10 12:46:10;;;;;;;16.05;11.27;;;;;;;;;;10036117;28;20053;-82
2024/01/10 12:51:05;;;;;;;19.48;12.68;;;;;;;;;;9989185;28;20077;-78
2024/01/10 12:55:57;;;;;;;14.95;11.80;;;;;;;;;;9953063;28;20094;-79
2024/01/10 13:00:49;;;;;;;15.70;12.23;;;;;;;;;;9953910;28;20062;-80
2024/01/10 13:05:41;;;;;;;15.57;11.43;;;;;;;;;;9954326;28;20053;-78
2024/01/10 13:10:33;;;;;;;17.58;12.82;;;;;;;;;;9953345;28;20049;-81
2024/01/10 13:15:25;;;;;;;15.70;11.43;;;;;;;;;;9960597;28;20043;-78
2024/01/10 13:20:17;;;;;;;16.88;12.40;;;;;;;;;;9952455;28;20046;-79
2024/01/10 13:25:09;;;;;;;24.38;11.95;;;;;;;;;;9952048;28;20086;-80
2024/01/10 13:30:01;;;;;;;16.02;13.18;;;;;;;;;;9951094;28;20047;-78
2024/01/10 13:34:53;;;;;;;14.63;12.50;;;;;;;;;;9953090;28;20526;-77
2024/01/10 13:39:45;;;;;;;19.10;14.68;;;;;;;;;;9952669;28;20091;-77
2024/01/10 13:44:37;;;;;;;19.27;14.95;;;;;;;;;;9951192;28;20485;-78
2024/01/10 13:49:29;;;;;;;24.33;16.77;;;;;;;;;;9950267;28;20055;-77
2024/01/10 13:54:21;;;;;;;18.48;13.27;;;;;;;;;;9950841;28;20347;-78
2024/01/10 13:59:13;;;;;;;16.70;13.00;;;;;;;;;;9950007;28;20334;-78
2024/01/10 14:04:05;;;;;;;17.60;11.73;;;;;;;;;;9952554;28;20126;-78
2024/01/10 14:08:57;;;;;;;16.67;11.98;;;;;;;;;;9949596;28;20050;-78
2024/01/10 14:13:49;;;;;;;17.92;12.63;;;;;;;;;;9952493;28;20081;-78
2024/01/10 14:18:41;;;;;;;16.10;12.90;;;;;;;;;;9947756;28;20391;-77
2024/01/10 14:23:33;;;;;;;16.15;12.68;;;;;;;;;;9950963;28;20513;-78
2024/01/10 14:28:25;;;;;;;17.08;14.23;;;;;;;;;;9949759;28;20109;-77
2024/01/10 14:33:18;;;;;;;18.38;13.38;;;;;;;;;;9946529;28;20055;-78
2024/01/10 14:38:10;;;;;;;13.98;11.52;;;;;;;;;;9948781;28;20454;-77
2024/01/10 14:43:02;;;;;;;16.83;13.75;;;;;;;;;;9950355;28;20613;-77
2024/01/10 14:47:54;;;;;;;22.92;14.32;;;;;;;;;;9951952;28;20137;-77
2024/01/10 14:52:46;;;;;;;17.25;13.73;;;;;;;;;;9951230;28;20429;-78
2024/01/10 14:57:38;;;;;;;16.30;12.38;;;;;;;;;;9948771;28;20046;-78
2024/01/10 15:02:30;;;;;;;23.13;14.52;;;;;;;;;;9947594;28;20102;-78
2024/01/10 15:07:22;;;;;;;20.67;12.50;;;;;;;;;;9948125;28;20046;-76
2024/01/10 15:12:14;;;;;;;19.40;14.05;;;;;;;;;;9949743;28;20113;-84
2024/01/10 15:17:10;;;;;;;18.83;13.75;;;;;;;;;;9950916;28;20046;-74
2024/01/10 15:22:04;;;;;;;19.27;14.45;;;;;;;;;;9947811;28;20134;-77
2024/01/10 15:27:00;;;;;;;20.02;17.65;;;;;;;;;;9949670;28;20101;-74
2024/01/10 15:31:54;;;;;;;19.60;16.42;;;;;;;;;;9948232;28;20054;-74
2024/01/10 15:36:46;;;;;;;41.78;29.88;;;;;;;;;;9947495;28;20049;-74
2024/01/10 15:41:38;;;;;;;28.02;23.95;;;;;;;;;;9946799;28;20054;-74
2024/01/10 15:46:30;;;;;;;36.05;26.48;;;;;;;;;;9951611;28;20141;-74
2024/01/10 15:51:22;;;;;;;22.35;16.55;;;;;;;;;;9947131;28;20126;-74
2024/01/10 15:56:14;;;;;;;21.05;16.42;;;;;;;;;;9947314;28;20049;-75
2024/01/10 16:01:06;;;;;;;25.88;19.15;;;;;;;;;;9947050;28;20145;-75
2024/01/10 16:05:59;;;;;;;32.75;24.40;;;;;;;;;;9945534;28;20104;-75
2024/01/10 16:10:51;;;;;;;33.53;23.13;;;;;;;;;;9944453;28;20179;-74
2024/01/10 16:15:43;;;;;;;24.88;18.85;;;;;;;;;;9953950;28;20764;-78
2024/01/10 16:20:37;;;;;;;28.67;21.73;;;;;;;;;;9947112;28;20047;-74
2024/01/10 16:25:29;;;;;;;25.42;17.73;;;;;;;;;;9946655;28;20410;-77
2024/01/10 16:30:21;;;;;;;19.85;17.73;;;;;;;;;;9945374;28;20788;-77
2024/01/10 16:35:14;;;;;;;26.23;17.85;;;;;;;;;;9948236;28;20046;-78
2024/01/10 16:40:07;;;;;;;66.75;47.72;;;;;;;;;;9946868;28;20043;-77
2024/01/10 16:44:59;;;;;;;27.42;20.33;;;;;;;;;;9946994;28;20045;-77
2024/01/10 16:49:51;;;;;;;30.40;27.10;;;;;;;;;;9946472;28;20441;-77
2024/01/10 16:54:43;;;;;;;30.00;23.73;;;;;;;;;;9945456;28;20097;-78
2024/01/10 16:59:34;;;;;;;24.55;20.10;;;;;;;;;;9950071;28;20061;-77
2024/01/10 17:04:26;;;;;;;30.70;23.40;;;;;;;;;;9946461;28;20050;-77
2024/01/10 17:09:18;;;;;;;35.58;28.17;;;;;;;;;;9945767;28;20046;-78
2024/01/10 17:14:10;;;;;;;48.33;38.00;;;;;;;;;;9949368;28;20474;-78
2024/01/10 17:19:02;;;;;;;45.78;30.63;;;;;;;;;;9944618;28;20055;-78
2024/01/10 17:23:54;;;;;;;42.33;26.67;;;;;;;;;;9951247;28;20051;-78
2024/01/10 17:28:46;;;;;;;19.38;16.77;;;;;;;;;;9952295;28;20063;-78
2024/01/10 17:33:38;;;;;;;49.00;32.13;;;;;;;;;;9951727;28;20565;-77
2024/01/10 17:38:30;;;;;;;30.27;24.67;;;;;;;;;;9950159;28;20050;-77
2024/01/10 17:43:23;;;;;;;100.60;64.38;;;;;;;;;;9954934;28;20053;-78
2024/01/10 17:48:14;;;;;;;59.13;39.63;;;;;;;;;;9957721;28;20133;-78
2024/01/10 17:53:10;;;;;;;35.60;24.00;;;;;;;;;;9960954;28;20129;-78
2024/01/10 17:58:02;;;;;;;53.72;33.40;;;;;;;;;;9950661;28;20043;-78
2024/01/10 18:02:54;;;;;;;56.97;44.28;;;;;;;;;;9952383;28;20145;-77
2024/01/10 18:07:48;;;;;;;35.58;27.38;;;;;;;;;;9952876;28;20093;-78
2024/01/10 18:12:40;;;;;;;21.33;17.52;;;;;;;;;;9955114;28;20074;-78
2024/01/10 18:17:32;;;;;;;22.50;18.08;;;;;;;;;;9949756;28;20113;-76
2024/01/10 18:22:24;;;;;;;42.33;27.60;;;;;;;;;;9948973;28;20394;-77
2024/01/10 18:27:16;;;;;;;26.27;22.70;;;;;;;;;;9951017;28;20047;-78
2024/01/10 18:32:08;;;;;;;48.63;37.40;;;;;;;;;;9949826;28;20052;-73
2024/01/10 18:37:01;;;;;;;47.15;29.27;;;;;;;;;;9956557;28;20334;-72
2024/01/10 18:41:53;;;;;;;23.83;18.23;;;;;;;;;;9959578;28;20370;-73
2024/01/10 18:46:45;;;;;;;34.72;25.40;;;;;;;;;;9946788;28;20498;-74
2024/01/10 18:51:37;;;;;;;25.05;19.25;;;;;;;;;;9945947;28;20387;-73
2024/01/10 18:56:29;;;;;;;21.45;16.30;;;;;;;;;;9959204;28;20117;-74
2024/01/10 19:01:21;;;;;;;29.05;19.55;;;;;;;;;;9983157;28;20373;-74
2024/01/10 19:06:13;;;;;;;23.25;19.45;;;;;;;;;;9983394;28;20058;-74
2024/01/10 19:11:07;;;;;;;27.15;20.48;;;;;;;;;;9981482;28;20046;-74
2024/01/10 19:16:00;;;;;;;21.23;15.77;;;;;;;;;;9981547;28;20042;-74
2024/01/10 19:20:51;;;;;;;24.15;17.55;;;;;;;;;;9979810;28;20096;-75
2024/01/10 19:25:43;;;;;;;20.98;15.43;;;;;;;;;;9983235;28;20070;-74
2024/01/10 19:30:35;;;;;;;20.17;17.30;;;;;;;;;;9984246;28;20101;-74
2024/01/10 19:35:27;;;;;;;22.63;14.90;;;;;;;;;;9985716;28;20097;-74
2024/01/10 19:40:19;;;;;;;19.02;14.75;;;;;;;;;;9982906;28;20038;-74
2024/01/10 19:45:11;;;;;;;21.92;16.75;;;;;;;;;;9962951;28;20411;-73
2024/01/10 19:50:03;;;;;;;18.80;16.30;;;;;;;;;;9945939;28;20097;-74
2024/01/10 19:54:55;;;;;;;19.00;14.93;;;;;;;;;;9970767;28;20410;-74
2024/01/10 19:59:47;;;;;;;22.42;16.52;;;;;;;;;;9969663;28;20068;-73
2024/01/10 20:04:39;;;;;;;30.50;23.08;;;;;;;;;;9965129;28;20053;-73
2024/01/10 20:09:31;;;;;;;21.77;14.88;;;;;;;;;;9949352;28;20043;-73
2024/01/10 20:14:23;;;;;;;22.40;17.30;;;;;;;;;;9974178;28;20058;-72
2024/01/10 20:19:17;;;;;;;26.20;18.88;;;;;;;;;;9957899;28;20047;-73
2024/01/10 20:24:09;;;;;;;24.33;20.42;;;;;;;;;;9967572;28;20516;-73
2024/01/10 20:29:00;;;;;;;23.58;17.85;;;;;;;;;;9971496;28;20408;-74
2024/01/10 20:33:52;;;;;;;18.73;16.50;;;;;;;;;;9979802;28;20046;-73
2024/01/10 20:38:45;;;;;;;23.58;16.60;;;;;;;;;;9982731;28;20161;-74
2024/01/10 20:43:37;;;;;;;20.70;16.33;;;;;;;;;;9981208;28;20088;-73
2024/01/10 20:48:30;;;;;;;18.17;16.23;;;;;;;;;;9975547;28;20062;-73
2024/01/10 20:53:22;;;;;;;22.38;15.25;;;;;;;;;;9975567;28;20086;-73
2024/01/10 20:58:14;;;;;;;18.95;14.95;;;;;;;;;;9983027;28;20141;-73
2024/01/10 21:03:06;;;;;;;19.17;15.80;;;;;;;;;;9985335;28;20083;-73
2024/01/10 21:07:58;;;;;;;18.70;15.60;;;;;;;;;;9969838;28;20382;-73
2024/01/10 21:12:50;;;;;;;19.08;15.13;;;;;;;;;;9985966;28;20046;-73
2024/01/10 21:17:41;;;;;;;19.75;15.93;;;;;;;;;;9982136;28;20113;-73
2024/01/10 21:22:34;;;;;;;19.35;15.48;;;;;;;;;;9989307;28;20208;-73
2024/01/10 21:27:27;;;;;;;18.13;14.63;;;;;;;;;;9980760;28;20121;-73
2024/01/10 21:32:19;;;;;;;17.75;14.65;;;;;;;;;;9987240;28;20074;-72
2024/01/10 21:37:12;;;;;;;20.08;15.38;;;;;;;;;;9973776;28;20410;-73
2024/01/10 21:42:04;;;;;;;20.58;16.23;;;;;;;;;;9988009;28;20977;-72
2024/01/10 21:46:56;;;;;;;19.33;15.25;;;;;;;;;;9989070;28;20433;-73
2024/01/10 21:51:48;;;;;;;22.90;16.23;;;;;;;;;;9988784;28;20035;-73
2024/01/10 21:56:40;;;;;;;18.90;16.08;;;;;;;;;;9988189;28;20082;-73
2024/01/10 22:01:32;;;;;;;19.42;16.85;;;;;;;;;;9985191;28;20042;-73
2024/01/10 22:06:24;;;;;;;21.73;18.92;;;;;;;;;;9984278;28;20716;-74
2024/01/10 22:11:16;;;;;;;21.65;17.17;;;;;;;;;;9975595;28;20470;-73
2024/01/10 22:16:11;;;;;;;18.63;16.35;;;;;;;;;;9978187;28;20047;-73
2024/01/10 22:21:03;;;;;;;18.95;15.73;;;;;;;;;;9964577;28;20046;-73
2024/01/10 22:25:55;;;;;;;19.25;14.85;;;;;;;;;;9986753;28;20428;-73
2024/01/10 22:30:47;;;;;;;19.15;14.95;;;;;;;;;;9987650;28;20065;-73
2024/01/10 22:35:39;;;;;;;20.95;16.30;;;;;;;;;;9987450;28;20050;-73
2024/01/10 22:40:31;;;;;;;22.48;17.35;;;;;;;;;;9981286;28;20034;-73
2024/01/10 22:45:23;;;;;;;24.38;17.98;;;;;;;;;;9982149;28;20042;-73
2024/01/10 22:50:17;;;;;;;19.73;16.90;;;;;;;;;;9978522;28;20132;-73
2024/01/10 22:55:09;;;;;;;23.02;16.20;;;;;;;;;;9981965;28;20068;-73
2024/01/10 23:00:03;;;;;;;19.50;16.13;;;;;;;;;;9974454;28;20050;-73
2024/01/10 23:04:55;;;;;;;20.42;16.27;;;;;;;;;;9986486;28;20457;-73
2024/01/10 23:09:47;;;;;;;24.20;16.85;;;;;;;;;;9985087;28;20063;-73
2024/01/10 23:14:39;;;;;;;22.00;16.70;;;;;;;;;;9986589;28;20127;-73
2024/01/10 23:19:31;;;;;;;30.17;21.10;;;;;;;;;;9986374;28;20045;-73
2024/01/10 23:24:22;;;;;;;26.38;19.55;;;;;;;;;;9986258;28;20043;-73
2024/01/10 23:29:14;;;;;;;25.23;19.20;;;;;;;;;;9986048;28;20046;-72
2024/01/10 23:34:06;;;;;;;25.85;18.77;;;;;;;;;;9979838;28;20070;-73
2024/01/10 23:39:01;;;;;;;24.17;19.05;;;;;;;;;;9959576;28;20070;-72
2024/01/10 23:43:52;;;;;;;20.38;17.35;;;;;;;;;;9948555;28;20043;-72
2024/01/10 23:48:44;;;;;;;21.85;16.65;;;;;;;;;;9953953;28;20054;-72
2024/01/10 23:53:36;;;;;;;22.58;16.63;;;;;;;;;;9949063;28;20045;-72
2024/01/10 23:58:28;;;;;;;23.50;18.42;;;;;;;;;;9947568;28;22097;-72
